地図

経路データ

SID SEASON NUMBER BASIN SUBBASIN NAME ISO_TIME NATURE LAT LON WMO_WIND WMO_PRES WMO_AGENCY TRACK_TYPE DIST2LAND LANDFALL IFLAG USA_AGENCY USA_ATCF_ID USA_LAT USA_LON USA_RECORD USA_STATUS USA_WIND USA_PRES USA_SSHS USA_R34_NE USA_R34_SE USA_R34_SW USA_R34_NW USA_R50_NE USA_R50_SE USA_R50_SW USA_R50_NW USA_R64_NE USA_R64_SE USA_R64_SW USA_R64_NW USA_POCI USA_ROCI USA_RMW USA_EYE TOKYO_LAT TOKYO_LON TOKYO_GRADE TOKYO_WIND TOKYO_PRES TOKYO_R50_DIR TOKYO_R50_LONG TOKYO_R50_SHORT TOKYO_R30_DIR TOKYO_R30_LONG TOKYO_R30_SHORT TOKYO_LAND CMA_LAT CMA_LON CMA_CAT CMA_WIND CMA_PRES HKO_LAT HKO_LON HKO_CAT HKO_WIND HKO_PRES NEWDELHI_LAT NEWDELHI_LON NEWDELHI_GRADE NEWDELHI_WIND NEWDELHI_PRES NEWDELHI_CI NEWDELHI_DP NEWDELHI_POCI REUNION_LAT REUNION_LON REUNION_TYPE REUNION_WIND REUNION_PRES REUNION_TNUM REUNION_CI REUNION_RMW REUNION_R34_NE REUNION_R34_SE REUNION_R34_SW REUNION_R34_NW REUNION_R50_NE REUNION_R50_SE REUNION_R50_SW REUNION_R50_NW REUNION_R64_NE REUNION_R64_SE REUNION_R64_SW REUNION_R64_NW BOM_LAT BOM_LON BOM_TYPE BOM_WIND BOM_PRES BOM_TNUM BOM_CI BOM_RMW BOM_R34_NE BOM_R34_SE BOM_R34_SW BOM_R34_NW BOM_R50_NE BOM_R50_SE BOM_R50_SW BOM_R50_NW BOM_R64_NE BOM_R64_SE BOM_R64_SW BOM_R64_NW BOM_ROCI BOM_POCI BOM_EYE BOM_POS_METHOD BOM_PRES_METHOD NADI_LAT NADI_LON NADI_CAT NADI_WIND NADI_PRES WELLINGTON_LAT WELLINGTON_LON WELLINGTON_WIND WELLINGTON_PRES DS824_LAT DS824_LON DS824_STAGE DS824_WIND DS824_PRES TD9636_LAT TD9636_LON TD9636_STAGE TD9636_WIND TD9636_PRES TD9635_LAT TD9635_LON TD9635_WIND TD9635_PRES TD9635_ROCI NEUMANN_LAT NEUMANN_LON NEUMANN_CLASS NEUMANN_WIND NEUMANN_PRES MLC_LAT MLC_LON MLC_CLASS MLC_WIND MLC_PRES USA_GUST BOM_GUST BOM_GUST_PER REUNION_GUST REUNION_GUST_PER USA_SEAHGT USA_SEARAD_NE USA_SEARAD_SE USA_SEARAD_SW USA_SEARAD_NW STORM_SPEED STORM_DIR
1880345S15067 1881 33 SI MM NOT_NAMED 1880-12-10 00:00:00 TS -14.8000 66.8000 main 1132 1090 _________O____ -1 -14.8000 66.8000 TC 9 251
1880345S15067 1881 33 SI MM NOT_NAMED 1880-12-10 03:00:00 TS -14.9502 66.3476 main 1075 1033 _________P____ -1 -14.9502 66.3476 TC 9 251
1880345S15067 1881 33 SI MM NOT_NAMED 1880-12-10 06:00:00 TS -15.1000 65.9000 main 1033 991 _________O____ -1 -15.1000 65.9000 TC 9 251
1880345S15067 1881 33 SI MM NOT_NAMED 1880-12-10 09:00:00 TS -15.2499 65.4574 main 991 934 _________P____ -1 -15.2499 65.4574 TC 9 251
1880345S15067 1881 33 SI MM NOT_NAMED 1880-12-10 12:00:00 TS -15.4000 65.0000 main 934 884 _________O____ -1 -15.4000 65.0000 TC 10 252
1880345S15067 1881 33 SI MM NOT_NAMED 1880-12-10 15:00:00 TS -15.5425 64.4999 main 884 828 _________P____ -1 -15.5425 64.4999 TC 10 253
1880345S15067 1881 33 SI MM NOT_NAMED 1880-12-10 18:00:00 TS -15.7000 64.0000 main 828 781 _________O____ -1 -15.7000 64.0000 TC 10 249
1880345S15067 1881 33 SI MM NOT_NAMED 1880-12-10 21:00:00 TS -15.8923 63.5499 main 772 725 _________P____ -1 -15.8923 63.5499 TC 10 245
1880345S15067 1881 33 SI MM NOT_NAMED 1880-12-11 00:00:00 TS -16.1000 63.1000 main 725 669 _________O____ -1 -16.1000 63.1000 TC 10 246
1880345S15067 1881 33 SI MM NOT_NAMED 1880-12-11 03:00:00 TS -16.3000 62.5999 main 669 614 _________P____ -1 -16.3000 62.5999 TC 10 247
1880345S15067 1881 33 SI MM NOT_NAMED 1880-12-11 06:00:00 TS -16.5000 62.1000 main 614 568 _________O____ -1 -16.5000 62.1000 TC 10 246
1880345S15067 1881 33 SI MM NOT_NAMED 1880-12-11 09:00:00 TS -16.7073 61.6499 main 560 514 _________P____ -1 -16.7073 61.6499 TC 10 245
1880345S15067 1881 33 SI MM NOT_NAMED 1880-12-11 12:00:00 TS -16.9000 61.2000 main 514 469 _________O____ -1 -16.9000 61.2000 TC 10 249
1880345S15067 1881 33 SI MM NOT_NAMED 1880-12-11 15:00:00 TS -17.0575 60.6999 main 461 417 _________P____ -1 -17.0575 60.6999 TC 10 253
1880345S15067 1881 33 SI MM NOT_NAMED 1880-12-11 18:00:00 TS -17.2000 60.2000 main 417 383 _________O____ -1 -17.2000 60.2000 TC 10 253
1880345S15067 1881 33 SI MM NOT_NAMED 1880-12-11 21:00:00 TS -17.3423 59.7498 main 377 336 _________P____ -1 -17.3423 59.7498 TC 9 251
1880345S15067 1881 33 SI MM NOT_NAMED 1880-12-12 00:00:00 TS -17.5000 59.3000 main 336 292 _________O____ -1 -17.5000 59.3000 TC 10 249
1880345S15067 1881 33 SI MM NOT_NAMED 1880-12-12 03:00:00 TS -17.6850 58.7999 main 292 254 _________P____ -1 -17.6850 58.7999 TC 10 247
1880345S15067 1881 33 SI MM NOT_NAMED 1880-12-12 06:00:00 TS -17.9000 58.3000 main 254 224 _________O____ -1 -17.9000 58.3000 TC 10 243
1880345S15067 1881 33 SI MM NOT_NAMED 1880-12-12 09:00:00 TS -18.1498 57.8425 main 223 190 _________P____ -1 -18.1498 57.8425 TC 10 240
1880345S15067 1881 33 SI MM NOT_NAMED 1880-12-12 12:00:00 TS -18.4000 57.4000 main 190 172 _________O____ -1 -18.4000 57.4000 TC 10 242
1880345S15067 1881 33 SI MM NOT_NAMED 1880-12-12 15:00:00 TS -18.6074 56.9424 main 179 172 _________P____ -1 -18.6074 56.9424 TC 9 245
1880345S15067 1881 33 SI MM NOT_NAMED 1880-12-12 18:00:00 TS -18.8000 56.5000 main 179 176 _________O____ -1 -18.8000 56.5000 TC 9 244
1880345S15067 1881 33 SI MM NOT_NAMED 1880-12-12 21:00:00 TS -18.9998 56.0998 main 191 191 _________P____ -1 -18.9998 56.0998 TC 9 242
1880345S15067 1881 33 SI MM NOT_NAMED 1880-12-13 00:00:00 TS -19.2000 55.7000 main 201 178 _________O____ -1 -19.2000 55.7000 TC 9 244
1880345S15067 1881 33 SI MM NOT_NAMED 1880-12-13 03:00:00 TS -19.3925 55.2499 main 179 162 _________P____ -1 -19.3925 55.2499 TC 9 245
1880345S15067 1881 33 SI MM NOT_NAMED 1880-12-13 06:00:00 TS -19.6000 54.8000 main 165 157 _________O____ -1 -19.6000 54.8000 TC 9 241
1880345S15067 1881 33 SI MM NOT_NAMED 1880-12-13 09:00:00 TS -19.8499 54.3850 main 163 154 _________P____ -1 -19.8499 54.3850 TC 9 236
1880345S15067 1881 33 SI MM NOT_NAMED 1880-12-13 12:00:00 TS -20.1000 54.0000 main 167 167 _________O____ -1 -20.1000 54.0000 TC 8 236
1880345S15067 1881 33 SI MM NOT_NAMED 1880-12-13 15:00:00 TS -20.3149 53.6424 main 188 183 _________P____ -1 -20.3149 53.6424 TC 8 239
1880345S15067 1881 33 SI MM NOT_NAMED 1880-12-13 18:00:00 TS -20.5000 53.3000 main 208 208 _________O____ -1 -20.5000 53.3000 TC 7 242
1880345S15067 1881 33 SI MM NOT_NAMED 1880-12-13 21:00:00 TS -20.6577 52.9526 main 232 232 _________P____ -1 -20.6577 52.9526 TC 7 245
1880345S15067 1881 33 SI MM NOT_NAMED 1880-12-14 00:00:00 TS -20.8000 52.6000 main 272 _________O____ -1 -20.8000 52.6000 TC 7 247

IBTrACS Databaseについて

本データベースは、米国NOAAが公開する1842年以降の世界の熱帯低気圧のベストトラックデータアーカイブInternational Best Track Archive for Climate Stewardship (IBTrACS)を、ウェブで閲覧しやすい形式に変換したものです。

最終更新日:2021-10-08